createdAt,value
2023-06-23T00:00:22.357Z,38.17
2023-06-23T00:02:51.395Z,42.50
2023-06-23T00:05:21.587Z,34.37
2023-06-23T00:07:50.474Z,37.97
2023-06-23T00:10:19.263Z,37.13
2023-06-23T00:12:49.446Z,39.50
2023-06-23T00:15:18.872Z,37.33
2023-06-23T00:17:48.363Z,37.97
2023-06-23T00:20:17.108Z,39.33
2023-06-23T00:22:47.744Z,35.17
2023-06-23T00:25:16.602Z,37.60
2023-06-23T00:27:46.583Z,38.40
2023-06-23T00:30:16.608Z,36.27
2023-06-23T00:32:46.033Z,38.67
2023-06-23T00:35:16.076Z,42.87
2023-06-23T00:37:46.974Z,37.67
2023-06-23T00:40:17.377Z,34.50
2023-06-23T00:42:47.724Z,34.97
2023-06-23T00:45:16.524Z,38.57
2023-06-23T00:47:46.341Z,37.10
2023-06-23T00:50:18.511Z,36.60
2023-06-23T00:52:51.825Z,39.07
2023-06-23T00:55:21.672Z,38.33
2023-06-23T00:57:51.292Z,39.07
2023-06-23T01:00:21.651Z,41.53
2023-06-23T01:02:52.096Z,40.57
2023-06-23T01:05:21.667Z,38.07
2023-06-23T01:07:59.324Z,35.87
2023-06-23T01:10:36.879Z,41.03
2023-06-23T01:13:16.473Z,43.10
2023-06-23T01:15:49.299Z,39.53
2023-06-23T01:18:28.758Z,37.10
2023-06-23T01:21:04.010Z,37.17
2023-06-23T01:24:04.970Z,37.90
2023-06-23T01:26:51.517Z,36.33
2023-06-23T01:29:25.871Z,36.83
2023-06-23T01:32:00.436Z,38.30
2023-06-23T01:34:38.027Z,34.90
2023-06-23T01:37:11.483Z,40.40
2023-06-23T01:39:44.451Z,39.13
2023-06-23T01:42:16.189Z,35.53
2023-06-23T01:44:49.630Z,41.70
2023-06-23T01:47:20.868Z,40.13
2023-06-23T01:49:52.785Z,38.83
2023-06-23T01:52:24.212Z,37.30
2023-06-23T01:54:53.441Z,35.83
2023-06-23T01:57:23.937Z,38.73
2023-06-23T01:59:55.544Z,39.73
2023-06-23T02:02:25.122Z,36.97
2023-06-23T02:04:55.597Z,36.87
2023-06-23T02:07:26.358Z,39.53
2023-06-23T02:09:55.706Z,37.53
2023-06-23T02:12:24.983Z,34.80
2023-06-23T02:14:55.464Z,38.17
2023-06-23T02:17:25.556Z,38.27
2023-06-23T02:19:56.734Z,40.43
2023-06-23T02:22:28.886Z,40.00
2023-06-23T02:24:59.661Z,33.80
2023-06-23T02:27:29.919Z,39.10
2023-06-23T02:30:01.888Z,36.23
2023-06-23T02:32:30.561Z,37.07
2023-06-23T02:34:59.375Z,35.17
2023-06-23T02:37:29.818Z,35.17
2023-06-23T02:40:02.958Z,38.33
2023-06-23T02:42:35.773Z,34.73
2023-06-23T02:45:10.322Z,34.07
2023-06-23T02:47:42.724Z,37.83
2023-06-23T02:50:14.580Z,35.90
2023-06-23T02:52:47.653Z,34.43
2023-06-23T02:55:21.963Z,34.47
2023-06-23T02:57:53.459Z,40.23
2023-06-23T03:00:26.165Z,38.70
2023-06-23T03:02:59.744Z,38.73
2023-06-23T03:05:28.984Z,37.47
2023-06-23T03:07:57.509Z,32.77
2023-06-23T03:10:26.059Z,35.37
2023-06-23T03:12:54.729Z,38.10
2023-06-23T03:15:24.760Z,37.23
2023-06-23T03:18:00.608Z,40.53
2023-06-23T03:20:33.876Z,37.63
2023-06-23T03:23:06.065Z,35.77
2023-06-23T03:25:35.024Z,39.67
2023-06-23T03:28:09.660Z,40.23
2023-06-23T03:30:43.161Z,35.93
2023-06-23T03:33:15.493Z,41.00
2023-06-23T03:35:47.110Z,43.70
2023-06-23T03:38:19.168Z,39.57
2023-06-23T03:40:51.482Z,39.17
2023-06-23T03:43:26.613Z,39.33
2023-06-23T03:46:00.704Z,42.30
2023-06-23T03:48:33.056Z,46.47
2023-06-23T03:51:05.513Z,42.03
2023-06-23T03:53:35.227Z,40.87
2023-06-23T03:56:06.198Z,39.17
2023-06-23T03:58:36.213Z,44.47
2023-06-23T04:01:08.158Z,46.83
2023-06-23T04:03:39.584Z,41.33
2023-06-23T04:06:10.129Z,47.20
2023-06-23T04:08:40.177Z,43.37
2023-06-23T04:11:10.840Z,50.00
2023-06-23T04:13:40.810Z,44.07
2023-06-23T04:16:12.138Z,47.60
2023-06-23T04:18:41.846Z,43.07
2023-06-23T04:21:11.214Z,45.87
2023-06-23T04:23:42.142Z,42.10
2023-06-23T04:26:13.380Z,44.57
2023-06-23T04:28:46.220Z,47.67
2023-06-23T04:31:18.324Z,41.37
2023-06-23T04:33:46.997Z,41.80
2023-06-23T04:36:17.504Z,42.23
2023-06-23T04:38:52.294Z,42.93
2023-06-23T04:41:24.345Z,40.30
2023-06-23T04:43:55.540Z,39.37
2023-06-23T04:46:29.453Z,35.83
2023-06-23T04:49:03.204Z,36.10
2023-06-23T04:51:36.907Z,36.17
2023-06-23T04:54:13.152Z,34.60
2023-06-23T04:56:46.803Z,33.17
2023-06-23T04:59:21.081Z,37.23
2023-06-23T05:01:51.824Z,36.47
2023-06-23T05:04:21.823Z,31.90
2023-06-23T05:06:51.460Z,31.23
2023-06-23T05:09:21.320Z,31.60
2023-06-23T05:11:51.526Z,30.17
2023-06-23T05:14:25.613Z,34.30
2023-06-23T05:16:58.150Z,30.90
2023-06-23T05:19:30.019Z,30.47
2023-06-23T05:22:00.186Z,28.90
2023-06-23T05:24:32.718Z,27.33
2023-06-23T05:27:03.801Z,28.27
2023-06-23T05:29:34.426Z,27.90
2023-06-23T05:32:07.550Z,28.20
2023-06-23T05:34:37.803Z,26.73
2023-06-23T05:37:07.940Z,26.37
2023-06-23T05:39:39.293Z,25.80
2023-06-23T05:42:08.576Z,26.13
2023-06-23T05:44:37.119Z,24.90
2023-06-23T05:47:12.738Z,25.27
2023-06-23T05:49:48.150Z,25.23
2023-06-23T05:52:21.247Z,26.23
2023-06-23T05:54:52.868Z,26.30
2023-06-23T05:57:28.274Z,26.53
2023-06-23T06:00:05.551Z,23.90
2023-06-23T06:02:38.927Z,24.93
2023-06-23T06:05:11.805Z,25.67
2023-06-23T06:07:41.141Z,24.00
2023-06-23T06:10:12.561Z,24.07
2023-06-23T06:12:43.114Z,25.73
2023-06-23T06:15:12.632Z,23.53
2023-06-23T06:17:44.503Z,24.93
2023-06-23T06:20:16.839Z,25.30
2023-06-23T06:22:47.811Z,25.47
2023-06-23T06:25:17.269Z,25.57
2023-06-23T06:27:48.981Z,23.87
2023-06-23T06:30:20.284Z,24.60
2023-06-23T06:32:52.670Z,25.27
2023-06-23T06:35:24.132Z,25.20
2023-06-23T06:37:54.695Z,26.73
2023-06-23T06:40:26.681Z,24.20
2023-06-23T06:42:55.287Z,23.57
2023-06-23T06:45:24.245Z,23.10
2023-06-23T06:47:57.126Z,23.20
2023-06-23T06:50:26.384Z,21.90
2023-06-23T06:52:56.287Z,21.03
2023-06-23T06:55:25.650Z,21.73
2023-06-23T06:57:54.383Z,20.50
2023-06-23T07:00:26.227Z,21.77
2023-06-23T07:03:00.288Z,19.73
2023-06-23T07:05:28.954Z,20.53
2023-06-23T07:07:57.651Z,20.27
2023-06-23T07:10:26.376Z,20.63
2023-06-23T07:12:54.805Z,17.87
2023-06-23T07:15:23.439Z,18.93
2023-06-23T07:17:52.165Z,18.67
2023-06-23T07:20:22.745Z,19.40
2023-06-23T07:22:51.734Z,18.20
2023-06-23T07:25:20.390Z,18.43
2023-06-23T07:27:50.088Z,17.67
2023-06-23T07:30:19.458Z,17.70
2023-06-23T07:32:48.246Z,16.17
2023-06-23T07:35:16.483Z,17.20
2023-06-23T07:37:47.114Z,17.00
2023-06-23T07:40:15.788Z,17.07
2023-06-23T07:42:44.269Z,16.30
2023-06-23T07:45:13.288Z,17.73
2023-06-23T07:47:42.313Z,17.33
2023-06-23T07:50:11.447Z,16.20
2023-06-23T07:52:40.035Z,15.90
2023-06-23T07:55:11.003Z,16.47
2023-06-23T07:57:39.835Z,15.60
2023-06-23T08:00:09.885Z,14.20
2023-06-23T08:02:38.888Z,15.20
2023-06-23T08:05:08.287Z,15.40
2023-06-23T08:07:36.938Z,14.33
2023-06-23T08:10:06.162Z,15.80
2023-06-23T08:12:37.305Z,15.87
2023-06-23T08:15:06.483Z,15.40
2023-06-23T08:17:35.100Z,13.60
2023-06-23T08:20:04.582Z,15.80
2023-06-23T08:22:33.169Z,14.27
2023-06-23T08:25:01.822Z,13.03
2023-06-23T08:27:30.303Z,13.63
2023-06-23T08:30:00.726Z,14.17
2023-06-23T08:32:29.631Z,14.37
2023-06-23T08:34:58.373Z,14.53
2023-06-23T08:37:26.954Z,14.77
2023-06-23T08:39:55.448Z,14.30
2023-06-23T08:42:24.812Z,14.77
2023-06-23T08:44:54.694Z,15.60
2023-06-23T08:47:28.297Z,14.10
2023-06-23T08:49:57.132Z,13.77
2023-06-23T08:52:26.993Z,14.33
2023-06-23T08:54:56.230Z,15.17
2023-06-23T08:57:27.091Z,14.03
2023-06-23T08:59:56.756Z,13.10
2023-06-23T09:02:26.714Z,12.80
2023-06-23T09:04:55.558Z,14.47
2023-06-23T09:07:26.064Z,12.80
2023-06-23T09:09:54.609Z,13.33
2023-06-23T09:12:24.682Z,11.63
2023-06-23T09:14:54.285Z,12.10
2023-06-23T09:17:23.061Z,12.20
2023-06-23T09:19:56.346Z,11.73
2023-06-23T09:22:25.751Z,11.07
2023-06-23T09:24:54.362Z,12.30
2023-06-23T09:27:29.192Z,14.30
2023-06-23T09:30:05.226Z,11.63
2023-06-23T09:32:36.120Z,9.97
2023-06-23T09:35:06.717Z,9.83
2023-06-23T09:37:38.160Z,10.40
2023-06-23T09:40:08.041Z,11.20
2023-06-23T09:42:36.750Z,8.30
2023-06-23T09:45:18.922Z,10.23
2023-06-23T09:47:51.440Z,10.83
2023-06-23T09:50:24.503Z,9.93
2023-06-23T09:53:04.874Z,9.13
2023-06-23T09:55:33.781Z,9.60
2023-06-23T09:58:09.735Z,8.70
2023-06-23T10:00:39.156Z,8.60
2023-06-23T10:03:08.807Z,8.80
2023-06-23T10:05:39.675Z,10.97
2023-06-23T10:08:14.090Z,9.60
2023-06-23T10:10:44.653Z,9.60
2023-06-23T10:13:13.870Z,7.20
2023-06-23T10:15:44.333Z,8.40
2023-06-23T10:18:17.909Z,7.83
2023-06-23T10:20:49.950Z,9.70
2023-06-23T10:23:19.580Z,9.40
2023-06-23T10:25:55.722Z,9.50
2023-06-23T10:28:26.631Z,10.17
2023-06-23T10:30:56.183Z,8.70
2023-06-23T10:33:27.356Z,9.60
2023-06-23T10:36:00.643Z,7.57
2023-06-23T10:38:32.539Z,6.85
2023-06-23T10:41:02.818Z,8.47
2023-06-23T10:43:35.721Z,8.35
2023-06-23T10:46:05.832Z,7.83
2023-06-23T10:48:35.554Z,8.60
2023-06-23T10:51:07.026Z,8.65
2023-06-23T10:53:38.761Z,8.32
2023-06-23T10:56:09.764Z,8.10
2023-06-23T10:58:51.411Z,7.82
2023-06-23T11:01:21.156Z,7.95
2023-06-23T11:03:53.847Z,8.85
2023-06-23T11:06:31.570Z,6.43
2023-06-23T11:09:00.638Z,5.90
2023-06-23T11:11:37.632Z,5.95
2023-06-23T11:14:15.895Z,7.53
2023-06-23T11:16:44.738Z,6.15
2023-06-23T11:19:28.810Z,5.85
2023-06-23T11:22:11.241Z,8.20
2023-06-23T11:24:54.264Z,6.90
2023-06-23T11:27:23.369Z,7.28
2023-06-23T11:30:17.055Z,13.77
2023-06-23T11:32:45.831Z,4.65
2023-06-23T11:35:14.307Z,6.85
2023-06-23T11:37:46.918Z,5.40
2023-06-23T11:40:16.271Z,5.38
2023-06-23T11:42:47.685Z,5.93
2023-06-23T11:45:16.322Z,5.75
2023-06-23T11:47:44.988Z,6.30
2023-06-23T11:50:13.854Z,6.82
2023-06-23T11:52:45.364Z,6.32
2023-06-23T11:55:15.630Z,6.45
2023-06-23T11:57:46.375Z,4.80
2023-06-23T12:00:16.672Z,5.45
2023-06-23T12:02:47.469Z,5.40
2023-06-23T12:05:17.569Z,7.40
2023-06-23T12:07:48.058Z,4.70
2023-06-23T12:10:18.609Z,4.97
2023-06-23T12:12:49.181Z,5.97
2023-06-23T12:15:19.428Z,4.25
2023-06-23T12:17:47.986Z,5.82
2023-06-23T12:20:20.839Z,5.22
2023-06-23T12:22:52.451Z,3.22
2023-06-23T12:25:21.446Z,3.35
2023-06-23T12:27:54.299Z,5.43
2023-06-23T12:30:24.038Z,4.88
2023-06-23T12:32:57.493Z,3.30
2023-06-23T12:35:26.978Z,2.95
2023-06-23T12:37:57.543Z,4.68
2023-06-23T12:40:33.621Z,4.28
2023-06-23T12:43:04.029Z,4.97
2023-06-23T12:45:35.568Z,5.03
2023-06-23T12:48:04.467Z,4.43
2023-06-23T12:50:38.258Z,3.28
2023-06-23T12:53:08.831Z,4.65
2023-06-23T12:55:37.593Z,3.25
2023-06-23T12:58:06.987Z,2.50
2023-06-23T13:00:35.586Z,2.80
2023-06-23T13:03:06.419Z,3.78
2023-06-23T13:05:36.233Z,4.30
2023-06-23T13:08:05.358Z,4.95
2023-06-23T13:10:36.216Z,3.75
2023-06-23T13:13:05.180Z,4.00
2023-06-23T13:15:35.684Z,4.88
2023-06-23T13:18:08.526Z,3.33
2023-06-23T13:20:37.075Z,3.33
2023-06-23T13:23:05.828Z,3.20
2023-06-23T13:25:35.784Z,2.88
2023-06-23T13:28:05.060Z,3.58
2023-06-23T13:30:34.218Z,3.58
2023-06-23T13:33:05.870Z,3.35
2023-06-23T13:35:35.828Z,4.07
2023-06-23T13:38:04.872Z,2.45
2023-06-23T13:40:33.464Z,2.38
2023-06-23T13:43:04.241Z,3.05
2023-06-23T13:45:33.763Z,3.42
2023-06-23T13:48:03.186Z,4.15
2023-06-23T13:50:32.214Z,2.80
2023-06-23T13:53:00.808Z,2.50
2023-06-23T13:55:29.454Z,3.00
2023-06-23T13:57:58.122Z,3.38
2023-06-23T14:00:28.485Z,2.85
2023-06-23T14:02:57.505Z,3.72
2023-06-23T14:05:27.000Z,2.67
2023-06-23T14:07:55.620Z,2.33
2023-06-23T14:10:24.251Z,2.88
2023-06-23T14:12:54.083Z,2.72
2023-06-23T14:15:22.722Z,3.65
2023-06-23T14:17:52.941Z,4.13
2023-06-23T14:20:22.460Z,4.60
2023-06-23T14:22:51.164Z,5.30
2023-06-23T14:25:19.748Z,2.53
2023-06-23T14:27:48.798Z,2.97
2023-06-23T14:30:23.392Z,4.10
2023-06-23T14:32:53.863Z,4.82
2023-06-23T14:35:22.533Z,2.65
2023-06-23T14:37:51.418Z,2.30
2023-06-23T14:40:20.329Z,2.20
2023-06-23T14:42:49.352Z,2.38
2023-06-23T14:45:18.404Z,3.55
2023-06-23T14:47:47.272Z,3.78
2023-06-23T14:50:17.698Z,2.90
2023-06-23T14:52:46.439Z,4.53
2023-06-23T14:55:14.963Z,4.05
2023-06-23T14:57:43.810Z,5.32
2023-06-23T15:00:13.929Z,2.83
2023-06-23T15:02:43.424Z,4.95
2023-06-23T15:05:12.334Z,2.63
2023-06-23T15:07:42.703Z,2.88
2023-06-23T15:10:12.773Z,4.03
2023-06-23T15:12:41.728Z,2.38
2023-06-23T15:15:11.673Z,2.55
2023-06-23T15:17:40.567Z,2.42
2023-06-23T15:20:10.274Z,3.15
2023-06-23T15:22:38.988Z,2.47
2023-06-23T15:25:11.364Z,2.28
2023-06-23T15:27:40.720Z,2.88
2023-06-23T15:30:13.544Z,2.45
2023-06-23T15:32:42.184Z,2.63
2023-06-23T15:35:12.075Z,2.33
2023-06-23T15:37:41.599Z,2.65
2023-06-23T15:40:14.076Z,3.42
2023-06-23T15:42:42.892Z,4.63
2023-06-23T15:45:15.149Z,2.35
2023-06-23T15:47:43.471Z,5.38
2023-06-23T15:50:12.432Z,2.53
2023-06-23T15:52:41.319Z,2.85
2023-06-23T15:55:12.750Z,3.70
2023-06-23T15:57:41.338Z,2.88
2023-06-23T16:00:10.906Z,3.03
2023-06-23T16:02:39.824Z,3.95
2023-06-23T16:05:08.701Z,2.83
2023-06-23T16:07:39.056Z,3.65
2023-06-23T16:10:08.348Z,3.15
2023-06-23T16:12:38.346Z,2.55
2023-06-23T16:15:08.505Z,4.95
2023-06-23T16:17:37.359Z,3.08
2023-06-23T16:20:06.847Z,2.85
2023-06-23T16:22:35.257Z,3.70
2023-06-23T16:25:04.393Z,3.50
2023-06-23T16:27:33.585Z,2.83
2023-06-23T16:30:04.744Z,3.63
2023-06-23T16:32:33.321Z,2.85
2023-06-23T16:35:03.176Z,4.28
2023-06-23T16:37:34.057Z,2.75
2023-06-23T16:40:02.837Z,2.97
2023-06-23T16:42:31.908Z,3.92
2023-06-23T16:45:03.472Z,3.45
2023-06-23T16:47:32.292Z,3.13
2023-06-23T16:50:00.893Z,2.65
2023-06-23T16:52:29.818Z,2.80
2023-06-23T16:54:58.543Z,3.20
2023-06-23T16:57:27.377Z,3.55
2023-06-23T16:59:55.972Z,4.47
2023-06-23T17:02:26.508Z,3.22
2023-06-23T17:04:55.180Z,4.57
2023-06-23T17:07:23.921Z,3.28
2023-06-23T17:09:53.203Z,3.25
2023-06-23T17:12:22.220Z,5.20
2023-06-23T17:14:51.928Z,2.60
2023-06-23T17:17:21.559Z,3.65
2023-06-23T17:19:54.187Z,2.63
2023-06-23T17:22:23.307Z,3.00
2023-06-23T17:24:53.249Z,3.88
2023-06-23T17:27:21.761Z,2.72
2023-06-23T17:29:53.019Z,2.40
2023-06-23T17:32:22.255Z,2.88
2023-06-23T17:34:53.356Z,3.33
2023-06-23T17:37:23.430Z,3.03
2023-06-23T17:39:52.533Z,3.33
2023-06-23T17:42:20.986Z,3.40
2023-06-23T17:44:49.540Z,2.60
2023-06-23T17:47:18.293Z,3.53
2023-06-23T17:49:47.735Z,3.10
2023-06-23T17:52:18.487Z,2.92
2023-06-23T17:54:47.036Z,3.67
2023-06-23T17:57:15.879Z,2.85
2023-06-23T17:59:44.632Z,2.72
2023-06-23T18:02:18.023Z,3.03
2023-06-23T18:04:52.677Z,3.33
2023-06-23T18:07:23.125Z,2.72
2023-06-23T18:09:51.762Z,2.70
2023-06-23T18:12:20.591Z,4.00
2023-06-23T18:14:49.425Z,2.80
2023-06-23T18:17:18.344Z,3.17
2023-06-23T18:19:47.828Z,3.35
2023-06-23T18:22:16.306Z,3.45
2023-06-23T18:24:46.473Z,4.45
2023-06-23T18:27:14.988Z,3.00
2023-06-23T18:29:43.817Z,3.72
2023-06-23T18:32:44.657Z,4.80
2023-06-23T18:35:15.069Z,3.90
2023-06-23T18:37:44.495Z,4.63
2023-06-23T18:40:15.173Z,2.80
2023-06-23T18:42:44.676Z,5.53
2023-06-23T18:45:15.438Z,3.00
2023-06-23T18:47:43.997Z,3.07
2023-06-23T18:50:13.443Z,2.75
2023-06-23T18:52:41.880Z,3.03
2023-06-23T18:55:11.659Z,2.88
2023-06-23T18:57:42.803Z,3.45
2023-06-23T19:00:12.429Z,3.72
2023-06-23T19:02:41.025Z,2.53
2023-06-23T19:05:10.835Z,3.88
2023-06-23T19:07:39.711Z,3.95
2023-06-23T19:10:08.746Z,3.22
2023-06-23T19:12:37.870Z,3.47
2023-06-23T19:15:09.807Z,4.07
2023-06-23T19:17:38.529Z,4.77
2023-06-23T19:20:10.989Z,7.90
2023-06-23T19:22:40.461Z,5.57
2023-06-23T19:25:09.906Z,4.97
2023-06-23T19:27:38.769Z,4.23
2023-06-23T19:30:10.249Z,5.47
2023-06-23T19:32:39.135Z,4.50
2023-06-23T19:35:10.305Z,4.43
2023-06-23T19:37:38.961Z,3.70
2023-06-23T19:40:09.019Z,4.10
2023-06-23T19:42:37.785Z,3.63
2023-06-23T19:45:09.668Z,3.47
2023-06-23T19:47:38.663Z,3.77
2023-06-23T19:50:09.629Z,4.67
2023-06-23T19:52:38.145Z,3.67
2023-06-23T19:55:08.841Z,4.87
2023-06-23T19:57:39.051Z,3.67
2023-06-23T20:00:11.029Z,4.00
2023-06-23T20:02:39.863Z,5.60
2023-06-23T20:05:09.047Z,5.83
2023-06-23T20:07:37.724Z,5.97
2023-06-23T20:10:07.240Z,9.37
2023-06-23T20:12:36.176Z,6.37
2023-06-23T20:15:05.778Z,7.73
2023-06-23T20:17:36.892Z,5.93
2023-06-23T20:20:05.986Z,6.03
2023-06-23T20:22:34.257Z,3.93
2023-06-23T20:25:02.763Z,3.83
2023-06-23T20:27:31.338Z,3.97
2023-06-23T20:30:00.969Z,3.57
2023-06-23T20:32:29.545Z,4.50
2023-06-23T20:34:59.485Z,3.23
2023-06-23T20:37:28.298Z,3.13
2023-06-23T20:39:57.333Z,3.27
2023-06-23T20:42:26.472Z,3.47
2023-06-23T20:44:54.943Z,4.70
2023-06-23T20:47:24.580Z,4.83
2023-06-23T20:49:53.661Z,3.53
2023-06-23T20:52:23.660Z,3.67
2023-06-23T20:54:52.096Z,4.03
2023-06-23T20:57:20.928Z,3.77
2023-06-23T20:59:49.633Z,5.50
2023-06-23T21:02:18.301Z,3.97
2023-06-23T21:04:46.717Z,3.63
2023-06-23T21:07:15.555Z,4.60
2023-06-23T21:09:45.774Z,3.40
2023-06-23T21:12:14.073Z,4.70
2023-06-23T21:14:52.525Z,3.73
2023-06-23T21:17:29.813Z,4.80
2023-06-23T21:19:58.450Z,5.10
2023-06-23T21:22:27.361Z,5.43
2023-06-23T21:24:57.742Z,4.80
2023-06-23T21:27:26.550Z,5.50
2023-06-23T21:29:55.761Z,7.07
2023-06-23T21:32:24.774Z,7.70
2023-06-23T21:34:53.421Z,5.37
2023-06-23T21:37:22.356Z,4.30
2023-06-23T21:39:51.113Z,6.10
2023-06-23T21:42:23.989Z,5.90
2023-06-23T21:44:53.274Z,4.83
2023-06-23T21:47:21.869Z,6.73
2023-06-23T21:49:50.435Z,5.00
2023-06-23T21:52:19.030Z,6.13
2023-06-23T21:54:48.698Z,4.63
2023-06-23T21:57:17.675Z,6.47
2023-06-23T21:59:47.980Z,4.70
2023-06-23T22:02:16.638Z,5.33
2023-06-23T22:04:45.654Z,6.47
2023-06-23T22:07:14.367Z,7.83
2023-06-23T22:09:43.627Z,5.70
2023-06-23T22:12:14.093Z,7.10
2023-06-23T22:14:42.627Z,4.43
2023-06-23T22:17:12.356Z,6.17
2023-06-23T22:19:41.427Z,6.37
2023-06-23T22:22:11.505Z,5.70
2023-06-23T22:24:40.753Z,5.27
2023-06-23T22:27:09.739Z,8.27
2023-06-23T22:29:38.386Z,5.87
2023-06-23T22:32:08.063Z,5.63
2023-06-23T22:34:38.558Z,6.00
2023-06-23T22:37:08.018Z,6.87
2023-06-23T22:39:36.560Z,5.90
2023-06-23T22:42:05.188Z,5.73
2023-06-23T22:44:33.773Z,8.10
2023-06-23T22:47:02.866Z,5.10
2023-06-23T22:49:32.931Z,5.80
2023-06-23T22:52:02.796Z,5.70
2023-06-23T22:54:31.909Z,5.80
2023-06-23T22:57:00.564Z,6.30
2023-06-23T22:59:29.081Z,6.17
2023-06-23T23:01:58.068Z,5.93
2023-06-23T23:04:26.864Z,10.80
2023-06-23T23:06:55.627Z,6.57
2023-06-23T23:09:25.708Z,5.83
2023-06-23T23:11:54.552Z,7.83
2023-06-23T23:14:24.382Z,4.73
2023-06-23T23:16:54.344Z,5.83
2023-06-23T23:19:22.929Z,6.50
2023-06-23T23:21:51.549Z,5.30
2023-06-23T23:24:23.535Z,5.63
2023-06-23T23:26:53.783Z,6.73
2023-06-23T23:29:26.581Z,6.03
2023-06-23T23:31:58.875Z,5.27
2023-06-23T23:34:33.172Z,7.63
2023-06-23T23:37:02.619Z,6.00
2023-06-23T23:39:31.494Z,6.80
2023-06-23T23:42:01.942Z,5.20
2023-06-23T23:44:30.537Z,6.10
2023-06-23T23:46:59.446Z,6.07
2023-06-23T23:49:28.613Z,5.90
2023-06-23T23:51:57.927Z,5.30
2023-06-23T23:54:26.512Z,6.13
2023-06-23T23:56:55.698Z,6.70
2023-06-23T23:59:26.103Z,6.40
